sensor_id;sensor_type;location;lat;lon;timestamp;pressure;altitude;pressure_sealevel;temperature;humidity
12073;BME280;6098;49.004;8.372;2023-03-14T00:04:43;98661.86;;;12.67;81.29
12073;BME280;6098;49.004;8.372;2023-03-14T00:19:52;98641.52;;;12.73;81.18
12073;BME280;6098;49.004;8.372;2023-03-14T00:34:46;98630.55;;;12.77;81.09
12073;BME280;6098;49.004;8.372;2023-03-14T00:49:39;98649.05;;;12.84;80.35
12073;BME280;6098;49.004;8.372;2023-03-14T01:04:43;98651.59;;;12.86;81.61
12073;BME280;6098;49.004;8.372;2023-03-14T01:19:37;98653.09;;;12.83;81.63
12073;BME280;6098;49.004;8.372;2023-03-14T01:34:31;98635.44;;;12.65;83.46
12073;BME280;6098;49.004;8.372;2023-03-14T03:20:35;98469.27;;;12.08;78.59
12073;BME280;6098;49.004;8.372;2023-03-14T03:35:24;98448.93;;;12.08;77.19
12073;BME280;6098;49.004;8.372;2023-03-14T03:50:16;98429.08;;;12.02;75.98
12073;BME280;6098;49.004;8.372;2023-03-14T04:05:07;98423.09;;;12.05;73.93
12073;BME280;6098;49.004;8.372;2023-03-14T04:19:59;98409.47;;;12.04;72.32
12073;BME280;6098;49.004;8.372;2023-03-14T04:34:49;98379.33;;;11.93;72.13
12073;BME280;6098;49.004;8.372;2023-03-14T04:49:40;98378.89;;;11.87;72.05
12073;BME280;6098;49.004;8.372;2023-03-14T05:04:32;98363.29;;;12.00;71.39
12073;BME280;6098;49.004;8.372;2023-03-14T05:19:22;98365.23;;;12.09;71.09
12073;BME280;6098;49.004;8.372;2023-03-14T05:34:14;98348.70;;;12.11;70.70
12073;BME280;6098;49.004;8.372;2023-03-14T05:49:05;98303.38;;;12.02;70.94
12073;BME280;6098;49.004;8.372;2023-03-14T06:03:56;98297.11;;;11.86;71.25
12073;BME280;6098;49.004;8.372;2023-03-14T06:18:47;98275.81;;;11.70;72.18
12073;BME280;6098;49.004;8.372;2023-03-14T06:33:38;98281.84;;;11.66;72.07
12073;BME280;6098;49.004;8.372;2023-03-14T06:48:28;98280.67;;;11.87;71.22
12073;BME280;6098;49.004;8.372;2023-03-14T07:03:20;98307.24;;;12.09;70.59
12073;BME280;6098;49.004;8.372;2023-03-14T07:18:11;98338.19;;;12.32;69.42
12073;BME280;6098;49.004;8.372;2023-03-14T07:33:02;98359.96;;;12.53;67.83
12073;BME280;6098;49.004;8.372;2023-03-14T07:47:54;98358.14;;;12.81;66.71
12073;BME280;6098;49.004;8.372;2023-03-14T08:02:45;98356.00;;;13.02;64.90
12073;BME280;6098;49.004;8.372;2023-03-14T08:17:37;98387.16;;;12.95;68.50
12073;BME280;6098;49.004;8.372;2023-03-14T08:32:27;98382.38;;;12.66;72.03
12073;BME280;6098;49.004;8.372;2023-03-14T08:47:18;98378.28;;;12.84;69.77
12073;BME280;6098;49.004;8.372;2023-03-14T09:02:12;98391.89;;;13.03;67.72
12073;BME280;6098;49.004;8.372;2023-03-14T09:17:06;98392.23;;;13.20;67.40
12073;BME280;6098;49.004;8.372;2023-03-14T09:31:58;98392.91;;;13.45;66.27
12073;BME280;6098;49.004;8.372;2023-03-14T09:46:50;98428.77;;;13.13;68.12
12073;BME280;6098;49.004;8.372;2023-03-14T10:01:39;98441.51;;;13.14;69.54
12073;BME280;6098;49.004;8.372;2023-03-14T10:16:32;98446.83;;;13.09;74.81
12073;BME280;6098;49.004;8.372;2023-03-14T10:31:27;98460.02;;;12.93;78.41
12073;BME280;6098;49.004;8.372;2023-03-14T10:46:21;98482.88;;;12.50;81.57
12073;BME280;6098;49.004;8.372;2023-03-14T11:31:50;98570.61;;;11.85;87.45
12073;BME280;6098;49.004;8.372;2023-03-14T12:01:40;98760.28;;;10.70;72.90
12073;BME280;6098;49.004;8.372;2023-03-14T12:16:36;98795.27;;;10.75;68.89
12073;BME280;6098;49.004;8.372;2023-03-14T12:46:29;98877.34;;;11.96;54.47
12073;BME280;6098;49.004;8.372;2023-03-14T13:01:20;98925.81;;;11.73;48.68
12073;BME280;6098;49.004;8.372;2023-03-14T13:16:12;98939.01;;;11.81;46.84
12073;BME280;6098;49.004;8.372;2023-03-14T13:31:02;98976.60;;;11.53;46.17
12073;BME280;6098;49.004;8.372;2023-03-14T13:45:55;99032.74;;;11.47;46.05
12073;BME280;6098;49.004;8.372;2023-03-14T14:15:53;99113.08;;;11.85;43.36
12073;BME280;6098;49.004;8.372;2023-03-14T14:30:45;99137.20;;;12.08;41.96
12073;BME280;6098;49.004;8.372;2023-03-14T14:45:36;99178.13;;;11.85;42.03
12073;BME280;6098;49.004;8.372;2023-03-14T15:00:28;99206.34;;;11.79;43.27
12073;BME280;6098;49.004;8.372;2023-03-14T15:15:18;99213.23;;;11.61;44.59
12073;BME280;6098;49.004;8.372;2023-03-14T15:30:13;99212.77;;;11.53;46.65
12073;BME280;6098;49.004;8.372;2023-03-14T15:45:06;99266.55;;;11.27;48.56
12073;BME280;6098;49.004;8.372;2023-03-14T15:59:57;99280.88;;;11.10;49.47
12073;BME280;6098;49.004;8.372;2023-03-14T16:14:47;99300.55;;;10.76;53.77
12073;BME280;6098;49.004;8.372;2023-03-14T16:29:35;99332.91;;;10.09;55.05
12073;BME280;6098;49.004;8.372;2023-03-14T16:44:26;99350.98;;;9.85;56.56
12073;BME280;6098;49.004;8.372;2023-03-14T16:59:16;99372.34;;;9.56;59.76
12073;BME280;6098;49.004;8.372;2023-03-14T17:14:07;99405.43;;;9.37;61.79
12073;BME280;6098;49.004;8.372;2023-03-14T17:28:57;99420.30;;;9.04;64.38
12073;BME280;6098;49.004;8.372;2023-03-14T17:43:47;99455.47;;;9.05;66.89
12073;BME280;6098;49.004;8.372;2023-03-14T17:58:38;99502.31;;;8.93;68.17
12073;BME280;6098;49.004;8.372;2023-03-14T18:13:29;99520.92;;;8.81;67.35
12073;BME280;6098;49.004;8.372;2023-03-14T18:28:19;99554.59;;;8.68;69.60
12073;BME280;6098;49.004;8.372;2023-03-14T18:43:10;99566.66;;;8.63;69.85
12073;BME280;6098;49.004;8.372;2023-03-14T18:58:00;99576.04;;;8.50;71.01
12073;BME280;6098;49.004;8.372;2023-03-14T19:12:53;99620.78;;;8.33;71.30
12073;BME280;6098;49.004;8.372;2023-03-14T19:27:44;99642.94;;;8.50;69.59
12073;BME280;6098;49.004;8.372;2023-03-14T19:42:35;99639.23;;;8.44;69.22
12073;BME280;6098;49.004;8.372;2023-03-14T19:57:26;99652.61;;;8.61;67.62
12073;BME280;6098;49.004;8.372;2023-03-14T20:12:17;99677.78;;;8.58;66.18
12073;BME280;6098;49.004;8.372;2023-03-14T20:27:08;99695.94;;;8.67;65.56
12073;BME280;6098;49.004;8.372;2023-03-14T20:41:58;99719.06;;;8.62;66.13
12073;BME280;6098;49.004;8.372;2023-03-14T20:56:48;99743.23;;;8.52;66.77
12073;BME280;6098;49.004;8.372;2023-03-14T21:11:37;99810.06;;;8.19;68.99
12073;BME280;6098;49.004;8.372;2023-03-14T21:26:20;99886.95;;;4.76;82.95
12073;BME280;6098;49.004;8.372;2023-03-14T21:41:07;99929.47;;;4.33;88.01
12073;BME280;6098;49.004;8.372;2023-03-14T21:55:57;99958.41;;;4.50;90.70
12073;BME280;6098;49.004;8.372;2023-03-14T22:10:49;99955.19;;;4.56;91.41
12073;BME280;6098;49.004;8.372;2023-03-14T22:25:45;100000.32;;;4.54;88.05
12073;BME280;6098;49.004;8.372;2023-03-14T22:40:36;100030.16;;;4.90;87.63
12073;BME280;6098;49.004;8.372;2023-03-14T22:55:26;100040.16;;;5.13;85.65
12073;BME280;6098;49.004;8.372;2023-03-14T23:10:16;100087.11;;;5.29;88.13
12073;BME280;6098;49.004;8.372;2023-03-14T23:25:07;100131.14;;;5.38;89.79
12073;BME280;6098;49.004;8.372;2023-03-14T23:39:58;100146.72;;;5.26;89.96
12073;BME280;6098;49.004;8.372;2023-03-14T23:54:47;100162.39;;;5.11;90.38
